createdAt,value
2019-01-22T03:30:46.452Z,-4.40
2019-01-22T03:33:43.382Z,-4.50
2019-01-22T03:36:32.620Z,-4.70
2019-01-22T03:39:17.105Z,-4.70
2019-01-22T03:41:58.387Z,-4.70
2019-01-22T03:44:47.583Z,-4.70
2019-01-22T03:47:37.897Z,-4.80
2019-01-22T03:50:19.000Z,-4.80
2019-01-22T03:53:00.165Z,-4.80
2019-01-22T03:55:44.279Z,-4.90
2019-01-22T03:58:13.859Z,-5.00
2019-01-22T04:00:43.841Z,-4.90
2019-01-22T04:03:13.488Z,-4.90
2019-01-22T04:05:43.029Z,-4.90
2019-01-22T04:08:12.555Z,-4.90
2019-01-22T04:10:41.861Z,-4.90
2019-01-22T04:13:12.080Z,-5.00
2019-01-22T04:15:41.631Z,-5.00
2019-01-22T04:18:11.510Z,-4.90
2019-01-22T04:20:40.772Z,-5.00
2019-01-22T04:23:10.152Z,-5.00
2019-01-22T04:25:43.084Z,-5.10
2019-01-22T04:28:32.239Z,-5.10
2019-01-22T04:31:07.405Z,-5.10
2019-01-22T04:34:00.838Z,-5.10
2019-01-22T04:37:04.570Z,-5.10
2019-01-22T04:39:57.836Z,-5.10
2019-01-22T04:42:47.019Z,-5.20
2019-01-22T04:45:25.579Z,-5.30
2019-01-22T04:48:23.620Z,-5.30
2019-01-22T04:51:05.036Z,-5.20
2019-01-22T04:53:57.581Z,-5.20
2019-01-22T04:56:54.434Z,-5.20
2019-01-22T04:59:26.996Z,-5.30
2019-01-22T05:02:11.442Z,-5.30
2019-01-22T05:04:43.948Z,-5.40
2019-01-22T05:07:34.636Z,-5.30
2019-01-22T05:10:28.481Z,-5.20
2019-01-22T05:13:12.861Z,-5.30
2019-01-22T05:15:57.844Z,-5.30
2019-01-22T05:18:45.268Z,-5.30
2019-01-22T05:21:30.177Z,-5.30
2019-01-22T05:24:20.621Z,-5.30
2019-01-22T05:27:08.249Z,-5.30
2019-01-22T05:29:46.788Z,-5.30
2019-01-22T05:32:52.808Z,-5.30
2019-01-22T05:35:25.380Z,-5.30
2019-01-22T05:38:09.995Z,-5.30
2019-01-22T05:40:42.535Z,-5.40
2019-01-22T05:43:27.291Z,-5.40
2019-01-22T05:46:00.111Z,-5.20
2019-01-22T05:48:47.689Z,-5.20
2019-01-22T05:51:20.258Z,-5.20
2019-01-22T05:53:52.835Z,-5.20
2019-01-22T05:56:30.971Z,-5.20
2019-01-22T05:59:15.093Z,-5.10
2019-01-22T06:01:47.604Z,-5.00
2019-01-22T06:04:39.759Z,-5.10
2019-01-22T06:07:24.032Z,-5.20
2019-01-22T06:10:02.363Z,-5.20
2019-01-22T06:12:53.203Z,-5.20
2019-01-22T06:15:37.579Z,-5.20
2019-01-22T06:18:25.410Z,-5.20
2019-01-22T06:21:07.412Z,-5.20
2019-01-22T06:23:48.923Z,-5.20
2019-01-22T06:26:27.644Z,-5.20
2019-01-22T06:29:20.725Z,-5.20
2019-01-22T06:31:59.076Z,-5.20
2019-01-22T06:34:51.428Z,-5.20
2019-01-22T06:37:35.888Z,-5.20
2019-01-22T06:40:11.060Z,-5.30
2019-01-22T06:43:00.044Z,-5.20
2019-01-22T06:45:48.388Z,-5.10
2019-01-22T06:48:31.184Z,-5.10
2019-01-22T06:51:22.200Z,-5.00
2019-01-22T06:54:15.875Z,-5.00
2019-01-22T06:57:04.407Z,-4.90
2019-01-22T06:59:45.452Z,-5.00
2019-01-22T07:02:18.020Z,-4.90
2019-01-22T07:05:02.931Z,-5.00
2019-01-22T07:08:05.298Z,-5.00
2019-01-22T07:10:44.820Z,-5.00
2019-01-22T07:13:29.012Z,-5.10
2019-01-22T07:16:01.531Z,-5.10
2019-01-22T07:18:52.531Z,-5.10
2019-01-22T07:21:30.675Z,-5.10
2019-01-22T07:24:05.721Z,-5.10
2019-01-22T07:26:44.143Z,-5.10
2019-01-22T07:29:36.445Z,-5.00
2019-01-22T07:32:20.712Z,-5.00
2019-01-22T07:35:23.479Z,-5.00
2019-01-22T07:38:04.912Z,-5.10
2019-01-22T07:40:43.198Z,-5.10
2019-01-22T07:43:24.931Z,-5.10
2019-01-22T07:46:02.907Z,-5.00
2019-01-22T07:48:49.865Z,-4.90
2019-01-22T07:51:46.631Z,-4.80
2019-01-22T07:54:22.103Z,-4.70
2019-01-22T07:57:09.496Z,-4.80
2019-01-22T07:59:44.755Z,-4.80
2019-01-22T08:02:32.128Z,-4.80
2019-01-22T08:05:12.112Z,-4.70
2019-01-22T08:07:58.179Z,-4.70
2019-01-22T08:10:36.220Z,-4.60
2019-01-22T08:13:26.623Z,-4.50
2019-01-22T08:16:04.919Z,-4.50
2019-01-22T08:18:59.519Z,-4.50
2019-01-22T08:22:03.515Z,-4.50
2019-01-22T08:24:38.860Z,-4.40
2019-01-22T08:27:23.204Z,-4.40
2019-01-22T08:29:58.527Z,-4.30
2019-01-22T08:32:46.056Z,-4.10
2019-01-22T08:35:21.831Z,-4.00
2019-01-22T08:38:03.116Z,-4.00
2019-01-22T08:41:09.128Z,-3.90
2019-01-22T08:44:00.040Z,-3.80
2019-01-22T08:46:47.511Z,-3.80
2019-01-22T08:49:38.244Z,-3.70
2019-01-22T08:52:14.171Z,-3.70
2019-01-22T08:55:20.251Z,-3.50
2019-01-22T08:57:52.821Z,-3.40
2019-01-22T09:00:34.250Z,-3.30
2019-01-22T09:03:13.844Z,-3.30
2019-01-22T09:06:04.359Z,-3.10
2019-01-22T09:08:42.823Z,-2.90
2019-01-22T09:11:27.932Z,-2.80
2019-01-22T09:14:09.044Z,-2.60
2019-01-22T09:16:44.231Z,-2.60
2019-01-22T09:19:37.604Z,-2.40
2019-01-22T09:22:43.476Z,-2.30
2019-01-22T09:25:18.591Z,-2.20
2019-01-22T09:27:59.916Z,-2.20
2019-01-22T09:30:50.372Z,-2.10
2019-01-22T09:33:25.764Z,-1.90
2019-01-22T09:36:10.379Z,-1.80
2019-01-22T09:38:39.747Z,-1.70
2019-01-22T09:41:09.007Z,-1.60
2019-01-22T09:43:38.307Z,-1.50
2019-01-22T09:46:07.913Z,-1.40
2019-01-22T09:48:38.136Z,-1.20
2019-01-22T09:51:07.439Z,-1.10
2019-01-22T09:53:37.369Z,-1.00
2019-01-22T09:56:07.243Z,-0.90
2019-01-22T09:58:36.504Z,-0.90
2019-01-22T10:01:05.808Z,-0.80
2019-01-22T10:03:35.635Z,-0.70
2019-01-22T10:06:05.291Z,-0.70
2019-01-22T10:08:34.556Z,-0.70
2019-01-22T10:11:03.816Z,-0.80
2019-01-22T10:13:33.123Z,-0.80
2019-01-22T10:16:02.759Z,-0.60
2019-01-22T10:18:32.020Z,-0.50
2019-01-22T10:21:02.231Z,-0.40
2019-01-22T10:23:32.201Z,-0.50
2019-01-22T10:26:02.828Z,-0.60
2019-01-22T10:28:32.131Z,-0.70
2019-01-22T10:31:02.611Z,-0.80
2019-01-22T10:33:32.306Z,-0.70
2019-01-22T10:36:02.584Z,-0.60
2019-01-22T10:38:31.879Z,-0.60
2019-01-22T10:41:03.095Z,-0.60
2019-01-22T10:43:32.400Z,-0.60
2019-01-22T10:46:02.618Z,-0.60
2019-01-22T10:48:31.924Z,-0.70
2019-01-22T10:51:01.190Z,-0.80
2019-01-22T10:53:32.237Z,-0.70
2019-01-22T10:56:02.887Z,-0.70
2019-01-22T10:58:32.153Z,-0.50
2019-01-22T11:01:02.868Z,-0.50
2019-01-22T11:03:32.296Z,-0.40
2019-01-22T11:06:03.459Z,-0.30
2019-01-22T11:08:33.390Z,-0.10
2019-01-22T11:11:03.719Z,0.00
2019-01-22T11:13:33.327Z,0.20
2019-01-22T11:16:03.495Z,0.30
2019-01-22T11:18:34.332Z,0.30
2019-01-22T11:21:04.155Z,0.40
2019-01-22T11:23:33.453Z,0.50
2019-01-22T11:26:03.628Z,0.50
2019-01-22T11:28:32.884Z,0.60
2019-01-22T11:31:02.599Z,0.70
2019-01-22T11:33:33.566Z,0.70
2019-01-22T11:36:02.819Z,0.70
2019-01-22T11:38:33.412Z,0.80
2019-01-22T11:41:04.048Z,1.00
2019-01-22T11:43:33.453Z,1.20
2019-01-22T11:46:02.700Z,1.40
2019-01-22T11:48:32.988Z,1.70
2019-01-22T11:51:04.055Z,2.00
2019-01-22T11:53:33.316Z,2.20
2019-01-22T11:56:03.541Z,2.50
2019-01-22T11:58:32.831Z,2.70
2019-01-22T12:01:03.996Z,2.90
2019-01-22T12:03:33.596Z,3.10
2019-01-22T12:06:03.548Z,3.30
2019-01-22T12:08:32.851Z,3.50
2019-01-22T12:11:03.181Z,3.70
2019-01-22T12:13:32.436Z,3.80
2019-01-22T12:16:02.953Z,3.80
2019-01-22T12:18:32.274Z,3.80
2019-01-22T12:21:03.157Z,3.80
2019-01-22T12:23:32.409Z,3.90
2019-01-22T12:26:02.985Z,3.90
2019-01-22T12:28:32.344Z,3.90
2019-01-22T12:31:03.795Z,4.00
2019-01-22T12:33:33.668Z,4.00
2019-01-22T12:36:03.219Z,4.10
2019-01-22T12:38:32.475Z,4.20
2019-01-22T12:41:02.733Z,4.40
2019-01-22T12:43:33.058Z,4.50
2019-01-22T12:46:02.926Z,4.60
2019-01-22T12:48:32.223Z,4.50
2019-01-22T12:51:01.551Z,4.20
2019-01-22T12:53:30.853Z,4.20
2019-01-22T12:56:04.600Z,4.40
2019-01-22T12:58:32.739Z,4.70
2019-01-22T13:01:03.917Z,4.80
2019-01-22T13:03:33.883Z,4.90
2019-01-22T13:06:03.780Z,5.00
2019-01-22T13:08:33.083Z,5.10
2019-01-22T13:11:02.907Z,5.20
2019-01-22T13:13:32.212Z,5.40
2019-01-22T13:16:01.466Z,5.60
2019-01-22T13:18:30.765Z,5.80
2019-01-22T13:21:00.021Z,6.00
2019-01-22T13:23:29.280Z,6.20
2019-01-22T13:25:59.248Z,6.30
2019-01-22T13:28:28.891Z,6.30
2019-01-22T13:30:58.218Z,6.40
2019-01-22T13:33:28.189Z,6.40
2019-01-22T13:35:57.451Z,6.30
2019-01-22T13:38:27.271Z,6.10
2019-01-22T13:40:56.572Z,6.00
2019-01-22T13:43:26.425Z,6.00
2019-01-22T13:45:55.679Z,6.10
2019-01-22T13:48:25.255Z,6.10
2019-01-22T13:50:54.633Z,6.20
2019-01-22T13:53:23.841Z,6.20
2019-01-22T13:55:53.140Z,6.30
2019-01-22T13:58:22.435Z,6.40
2019-01-22T14:00:52.840Z,6.40
2019-01-22T14:03:22.535Z,6.40
2019-01-22T14:05:51.799Z,6.30
2019-01-22T14:08:21.612Z,6.10
2019-01-22T14:10:51.220Z,6.00
2019-01-22T14:13:21.712Z,5.90
2019-01-22T14:15:51.256Z,5.80
2019-01-22T14:18:20.564Z,5.60
2019-01-22T14:20:50.525Z,5.30
2019-01-22T14:23:19.779Z,5.20
2019-01-22T14:25:49.035Z,5.00
2019-01-22T14:28:19.195Z,4.80
2019-01-22T14:30:49.120Z,4.60
2019-01-22T14:33:19.436Z,4.50
2019-01-22T14:35:49.043Z,4.40
2019-01-22T14:38:18.413Z,4.30
2019-01-22T14:40:47.664Z,4.20
2019-01-22T14:43:16.929Z,4.10
2019-01-22T14:45:47.459Z,4.10
2019-01-22T14:48:16.711Z,4.00
2019-01-22T14:50:45.963Z,3.90
2019-01-22T14:53:15.267Z,3.70
2019-01-22T14:55:44.566Z,3.60
2019-01-22T14:58:14.089Z,3.50
2019-01-22T15:00:43.701Z,3.50
2019-01-22T15:03:13.002Z,3.40
2019-01-22T15:05:43.224Z,3.30
2019-01-22T15:08:12.480Z,3.40
2019-01-22T15:10:42.138Z,3.30
2019-01-22T15:13:12.506Z,3.30
2019-01-22T15:15:41.723Z,3.20
2019-01-22T15:18:11.023Z,3.20
2019-01-22T15:20:40.847Z,3.00
2019-01-22T15:23:10.676Z,2.90
2019-01-22T15:25:39.972Z,2.90
2019-01-22T15:28:10.112Z,2.90
2019-01-22T15:30:39.923Z,2.90
2019-01-22T15:33:09.224Z,2.70
2019-01-22T15:35:39.452Z,2.70
2019-01-22T15:38:08.753Z,2.60
2019-01-22T15:40:38.018Z,2.60
2019-01-22T15:43:07.303Z,2.50
2019-01-22T15:45:37.132Z,2.40
2019-01-22T15:48:06.392Z,2.30
2019-01-22T15:50:35.697Z,2.20
2019-01-22T15:53:05.152Z,2.10
2019-01-22T15:55:34.457Z,2.10
2019-01-22T15:58:05.620Z,2.00
2019-01-22T16:00:35.543Z,2.00
2019-01-22T16:03:04.912Z,1.90
2019-01-22T16:05:34.172Z,1.80
2019-01-22T16:08:03.423Z,1.80
2019-01-22T16:10:33.112Z,1.80
2019-01-22T16:13:03.940Z,1.70
2019-01-22T16:15:33.195Z,1.60
2019-01-22T16:18:02.456Z,1.60
2019-01-22T16:20:31.756Z,1.60
2019-01-22T16:23:03.621Z,1.60
2019-01-22T16:25:33.464Z,1.50
2019-01-22T16:28:04.415Z,1.50
2019-01-22T16:30:34.120Z,1.40
2019-01-22T16:33:03.828Z,1.30
2019-01-22T16:35:33.579Z,1.30
2019-01-22T16:38:03.455Z,1.20
2019-01-22T16:40:32.972Z,1.10
2019-01-22T16:43:02.575Z,1.10
2019-01-22T16:45:33.640Z,1.10
2019-01-22T16:48:03.557Z,0.90
2019-01-22T16:50:33.825Z,0.90
2019-01-22T16:53:05.272Z,0.80
2019-01-22T16:55:37.265Z,0.80
2019-01-22T16:58:06.565Z,0.80
2019-01-22T17:00:37.012Z,0.70
2019-01-22T17:03:07.848Z,0.70
2019-01-22T17:05:37.167Z,0.70
2019-01-22T17:08:06.467Z,0.60
2019-01-22T17:10:35.860Z,0.60
2019-01-22T17:13:05.175Z,0.60
2019-01-22T17:15:34.428Z,0.60
2019-01-22T17:18:05.591Z,0.60
2019-01-22T17:20:38.155Z,0.50
2019-01-22T17:23:09.348Z,0.40
2019-01-22T17:25:39.028Z,0.30
2019-01-22T17:28:08.352Z,0.40
2019-01-22T17:30:38.350Z,0.40
2019-01-22T17:33:19.425Z,0.40
2019-01-22T17:35:48.900Z,0.30
2019-01-22T17:38:18.157Z,0.30
2019-01-22T17:40:47.408Z,0.20
2019-01-22T17:43:17.552Z,0.30
2019-01-22T17:45:48.512Z,0.30
2019-01-22T17:48:17.773Z,0.30
2019-01-22T17:50:47.071Z,0.20
2019-01-22T17:53:16.336Z,0.20
2019-01-22T17:55:46.161Z,0.10
2019-01-22T17:58:15.716Z,0.00
2019-01-22T18:00:45.021Z,0.00
2019-01-22T18:03:14.901Z,0.00
2019-01-22T18:05:44.152Z,0.00
2019-01-22T18:08:13.413Z,-0.10
2019-01-22T18:10:43.288Z,-0.10
2019-01-22T18:13:13.171Z,-0.10
2019-01-22T18:15:42.480Z,-0.20
2019-01-22T18:18:12.075Z,-0.20
2019-01-22T18:20:41.343Z,-0.30
2019-01-22T18:23:10.882Z,-0.30
2019-01-22T18:25:40.204Z,-0.40
2019-01-22T18:28:09.679Z,-0.40
2019-01-22T18:30:38.939Z,-0.50
2019-01-22T18:33:08.272Z,-0.50
2019-01-22T18:35:39.673Z,-0.60
2019-01-22T18:38:09.353Z,-0.70
2019-01-22T18:40:39.583Z,-0.70
2019-01-22T18:43:09.085Z,-0.70
2019-01-22T18:45:38.693Z,-0.80
2019-01-22T18:48:07.952Z,-0.80
2019-01-22T18:50:37.284Z,-0.80
2019-01-22T18:53:07.211Z,-1.00
2019-01-22T18:55:36.488Z,-1.00
2019-01-22T18:58:06.367Z,-1.10
2019-01-22T19:00:36.651Z,-1.20
2019-01-22T19:03:05.976Z,-1.30
2019-01-22T19:05:35.910Z,-1.30
2019-01-22T19:08:05.218Z,-1.40
2019-01-22T19:10:34.884Z,-1.50
2019-01-22T19:13:05.000Z,-1.60
2019-01-22T19:15:34.612Z,-1.50
2019-01-22T19:18:03.880Z,-1.50
2019-01-22T19:20:33.141Z,-1.50
2019-01-22T19:23:02.720Z,-1.50
2019-01-22T19:25:31.983Z,-1.50
2019-01-22T19:28:01.429Z,-1.60
2019-01-22T19:30:31.977Z,-1.60
2019-01-22T19:33:01.976Z,-1.60
2019-01-22T19:35:31.239Z,-1.80
2019-01-22T19:38:00.884Z,-1.80
2019-01-22T19:40:30.819Z,-1.90
2019-01-22T19:43:00.119Z,-2.00
2019-01-22T19:45:31.817Z,-2.00
2019-01-22T19:48:02.715Z,-2.00
2019-01-22T19:50:32.027Z,-2.10
2019-01-22T19:53:01.822Z,-2.20
2019-01-22T19:55:31.124Z,-2.20
2019-01-22T19:58:00.384Z,-2.30
2019-01-22T20:00:35.148Z,-2.40
2019-01-22T20:03:05.580Z,-2.50
2019-01-22T20:05:35.492Z,-2.40
2019-01-22T20:08:05.123Z,-2.50
2019-01-22T20:10:34.431Z,-2.40
2019-01-22T20:13:03.687Z,-2.40
2019-01-22T20:15:34.029Z,-2.50
2019-01-22T20:18:03.540Z,-2.50
2019-01-22T20:20:33.144Z,-2.50
2019-01-22T20:23:03.517Z,-2.40
2019-01-22T20:25:33.339Z,-2.50
2019-01-22T20:28:02.645Z,-2.60
2019-01-22T20:30:34.092Z,-2.70
2019-01-22T20:33:03.400Z,-2.80
2019-01-22T20:35:32.660Z,-2.70
2019-01-22T20:38:03.200Z,-2.80
2019-01-22T20:40:33.023Z,-2.80
2019-01-22T20:43:03.203Z,-2.70
2019-01-22T20:45:32.818Z,-2.70
2019-01-22T20:48:02.768Z,-2.70
2019-01-22T20:50:32.627Z,-2.60
2019-01-22T20:53:03.181Z,-2.60
2019-01-22T20:55:32.439Z,-2.70
2019-01-22T20:58:02.900Z,-2.70
2019-01-22T21:00:32.831Z,-2.80
2019-01-22T21:03:02.152Z,-2.80
2019-01-22T21:05:32.083Z,-2.70
2019-01-22T21:08:01.379Z,-2.80
2019-01-22T21:10:32.402Z,-2.70
2019-01-22T21:13:02.612Z,-2.70
2019-01-22T21:15:32.832Z,-2.70
2019-01-22T21:18:02.141Z,-2.70
2019-01-22T21:20:31.397Z,-2.60
2019-01-22T21:23:01.040Z,-2.60
2019-01-22T21:25:30.304Z,-2.60
2019-01-22T21:28:02.591Z,-2.70
2019-01-22T21:30:48.743Z,-2.70
2019-01-22T21:33:18.315Z,-2.70
2019-01-22T21:35:48.346Z,-2.70
2019-01-22T21:38:17.595Z,-2.70
2019-01-22T21:40:47.418Z,-2.70
2019-01-22T21:43:16.723Z,-2.70
2019-01-22T21:45:45.991Z,-2.80
2019-01-22T21:48:15.860Z,-2.80
2019-01-22T21:50:45.180Z,-2.80
2019-01-22T21:53:14.436Z,-2.80
2019-01-22T21:55:44.272Z,-2.80
2019-01-22T21:58:13.643Z,-3.00
2019-01-22T22:00:42.910Z,-3.00
2019-01-22T22:03:12.320Z,-3.10
2019-01-22T22:05:41.619Z,-3.20
2019-01-22T22:08:11.500Z,-3.30
2019-01-22T22:10:41.015Z,-3.30
2019-01-22T22:13:10.275Z,-3.30
2019-01-22T22:15:39.579Z,-3.40
2019-01-22T22:18:09.738Z,-3.40
2019-01-22T22:20:42.456Z,-3.30
2019-01-22T22:23:11.067Z,-3.40
2019-01-22T22:25:40.367Z,-3.40
2019-01-22T22:28:15.136Z,-3.40
2019-01-22T22:30:41.080Z,-3.40
2019-01-22T22:33:11.047Z,-3.40
2019-01-22T22:35:40.319Z,-3.40
2019-01-22T22:38:09.620Z,-3.50
2019-01-22T22:40:39.699Z,-3.50
2019-01-22T22:43:09.010Z,-3.60
2019-01-22T22:45:38.643Z,-3.60
2019-01-22T22:48:07.912Z,-3.70
2019-01-22T22:50:38.122Z,-3.80
2019-01-22T22:53:07.383Z,-3.80
2019-01-22T22:55:37.212Z,-3.80
2019-01-22T22:58:06.861Z,-3.90
2019-01-22T23:00:39.848Z,-4.00
2019-01-22T23:03:10.944Z,-3.90
2019-01-22T23:05:40.203Z,-3.90
2019-01-22T23:08:10.133Z,-3.90
2019-01-22T23:10:39.436Z,-3.90
2019-01-22T23:13:09.019Z,-4.00
